createdAt,value
2022-11-24T00:03:33.526Z,99743.30
2022-11-24T00:08:39.313Z,99750.92
2022-11-24T00:13:43.820Z,99754.15
2022-11-24T00:18:49.157Z,99755.08
2022-11-24T00:23:52.866Z,99758.34
2022-11-24T00:28:58.599Z,99765.13
2022-11-24T00:34:05.419Z,99768.15
2022-11-24T00:39:16.021Z,99765.11
2022-11-24T00:44:19.172Z,99755.98
2022-11-24T00:49:22.168Z,99754.27
2022-11-24T00:54:25.340Z,99757.39
2022-11-24T00:59:28.404Z,99761.50
2022-11-24T01:04:31.708Z,99760.25
2022-11-24T01:09:35.135Z,99744.48
2022-11-24T01:14:38.236Z,99735.93
2022-11-24T01:19:41.269Z,99744.45
2022-11-24T01:24:44.429Z,99743.73
2022-11-24T01:29:47.632Z,99733.74
2022-11-24T01:34:50.679Z,99728.44
2022-11-24T01:39:53.716Z,99728.45
2022-11-24T01:45:35.153Z,99728.79
2022-11-24T01:50:38.306Z,99749.99
2022-11-24T01:55:41.763Z,99745.71
2022-11-24T02:00:46.127Z,99747.92
2022-11-24T02:06:08.002Z,99753.23
2022-11-24T02:11:11.408Z,99764.19
2022-11-24T02:16:14.474Z,99769.23
2022-11-24T02:21:18.377Z,99768.54
2022-11-24T02:26:46.744Z,99755.61
2022-11-24T02:31:55.580Z,99741.47
2022-11-24T02:36:58.632Z,99754.84
2022-11-24T02:42:08.590Z,99756.06
2022-11-24T02:47:13.199Z,99755.23
2022-11-24T02:52:16.618Z,99751.50
2022-11-24T02:57:19.604Z,99742.95
2022-11-24T03:02:23.388Z,99736.80
2022-11-24T03:07:26.568Z,99770.29
2022-11-24T03:12:29.631Z,99757.08
2022-11-24T03:17:32.616Z,99760.52
2022-11-24T03:22:37.100Z,99757.98
2022-11-24T03:27:40.174Z,99763.36
2022-11-24T03:32:43.245Z,99743.45
2022-11-24T03:37:46.321Z,99748.11
2022-11-24T03:42:49.352Z,99750.86
2022-11-24T03:47:52.759Z,99760.27
2022-11-24T03:52:55.933Z,99751.98
2022-11-24T03:57:58.980Z,99748.12
2022-11-24T04:03:02.072Z,99759.33
2022-11-24T04:08:06.114Z,99771.02
2022-11-24T04:13:17.631Z,99773.55
2022-11-24T04:18:21.179Z,99772.63
2022-11-24T04:23:24.234Z,99778.96
2022-11-24T04:28:27.207Z,99765.83
2022-11-24T04:33:30.222Z,99772.18
2022-11-24T04:39:24.422Z,99775.11
2022-11-24T04:43:56.251Z,99773.66
2022-11-24T04:48:59.307Z,99776.67
2022-11-24T04:54:02.302Z,99776.44
2022-11-24T04:59:08.360Z,99783.09
2022-11-24T05:04:14.240Z,99780.14
2022-11-24T05:09:17.989Z,99785.86
2022-11-24T05:14:21.087Z,99792.02
2022-11-24T05:19:27.319Z,99789.13
2022-11-24T05:24:33.150Z,99796.81
2022-11-24T05:29:37.031Z,99800.55
2022-11-24T05:34:39.951Z,99805.24
2022-11-24T05:39:46.581Z,99806.39
2022-11-24T05:44:49.602Z,99806.61
2022-11-24T05:49:52.654Z,99804.61
2022-11-24T05:54:55.468Z,99809.80
2022-11-24T05:59:58.272Z,99813.26
2022-11-24T06:05:01.325Z,99810.39
2022-11-24T06:10:04.482Z,99806.23
2022-11-24T06:15:07.718Z,99824.30
2022-11-24T06:20:11.481Z,99825.10
2022-11-24T06:25:14.592Z,99841.58
2022-11-24T06:30:17.461Z,99849.64
2022-11-24T06:35:20.244Z,99853.59
2022-11-24T06:40:23.357Z,99861.98
2022-11-24T06:45:26.352Z,99871.11
2022-11-24T06:50:33.388Z,99866.48
2022-11-24T06:55:36.751Z,99862.96
2022-11-24T07:00:50.055Z,99856.56
2022-11-24T07:05:59.671Z,99848.58
2022-11-24T07:11:07.542Z,99852.04
2022-11-24T07:16:12.021Z,99855.54
2022-11-24T07:21:16.464Z,99858.70
2022-11-24T07:26:20.389Z,99876.50
2022-11-24T07:31:29.706Z,99892.75
2022-11-24T07:36:33.980Z,99895.04
2022-11-24T07:41:37.118Z,99888.28
2022-11-24T07:46:40.611Z,99890.05
2022-11-24T07:51:43.924Z,99885.99
2022-11-24T07:56:54.062Z,99890.33
2022-11-24T08:02:03.611Z,99881.58
2022-11-24T08:07:13.323Z,99871.41
2022-11-24T08:12:21.497Z,99871.80
2022-11-24T08:17:24.522Z,99873.45
2022-11-24T08:22:30.167Z,99884.84
2022-11-24T08:27:33.097Z,99892.11
2022-11-24T08:32:35.990Z,99897.06
2022-11-24T08:37:43.015Z,99896.36
2022-11-24T08:42:50.450Z,99895.83
2022-11-24T08:47:54.551Z,99911.52
2022-11-24T08:52:57.743Z,99910.27
2022-11-24T08:58:03.080Z,99910.91
2022-11-24T09:03:06.447Z,99906.98
2022-11-24T09:08:09.834Z,99906.83
2022-11-24T09:13:12.933Z,99896.34
2022-11-24T09:18:18.036Z,99892.26
2022-11-24T09:23:20.795Z,99882.05
2022-11-24T09:28:23.578Z,99888.47
2022-11-24T09:33:26.462Z,99895.48
2022-11-24T09:38:30.926Z,99899.77
2022-11-24T09:44:00.188Z,99908.38
2022-11-24T09:49:08.170Z,99916.89
2022-11-24T09:54:23.249Z,99918.88
2022-11-24T09:59:27.754Z,99914.48
2022-11-24T10:04:43.654Z,99916.42
2022-11-24T10:10:07.912Z,99913.80
2022-11-24T10:15:54.997Z,99921.10
2022-11-24T10:21:34.933Z,99918.85
2022-11-24T10:26:40.885Z,99922.64
2022-11-24T10:31:45.882Z,99907.91
2022-11-24T10:37:11.192Z,99911.67
2022-11-24T10:42:37.335Z,99909.10
2022-11-24T10:47:48.669Z,99908.21
2022-11-24T10:53:19.120Z,99903.90
2022-11-24T10:58:35.866Z,99908.70
2022-11-24T11:04:01.772Z,99912.41
2022-11-24T11:09:07.649Z,99913.99
2022-11-24T11:14:13.127Z,99914.11
2022-11-24T11:20:11.054Z,99915.90
2022-11-24T11:25:28.826Z,99915.09
2022-11-24T11:36:02.471Z,99919.83
2022-11-24T11:41:07.569Z,99921.17
2022-11-24T11:46:13.639Z,99921.98
2022-11-24T11:57:22.726Z,99924.61
2022-11-24T12:02:53.368Z,99932.23
2022-11-24T12:08:19.203Z,99936.77
2022-11-24T12:13:43.272Z,99930.28
2022-11-24T12:18:58.206Z,99927.59
2022-11-24T12:24:01.961Z,99922.31
2022-11-24T12:29:26.531Z,99923.84
2022-11-24T12:34:34.015Z,99921.26
2022-11-24T12:39:58.625Z,99926.59
2022-11-24T12:45:14.784Z,99921.34
2022-11-24T12:50:21.698Z,99919.66
2022-11-24T12:55:25.650Z,99920.02
2022-11-24T13:01:01.748Z,99912.80
2022-11-24T13:06:15.717Z,99917.11
2022-11-24T13:11:21.407Z,99919.52
2022-11-24T13:16:53.466Z,99923.61
2022-11-24T13:21:51.100Z,99921.38
2022-11-24T13:27:16.302Z,99921.55
2022-11-24T13:32:19.179Z,99919.45
2022-11-24T13:37:34.896Z,99919.52
2022-11-24T13:43:11.365Z,99920.97
2022-11-24T13:48:20.996Z,99923.48
2022-11-24T13:53:45.451Z,99931.71
2022-11-24T13:58:51.922Z,99933.22
2022-11-24T14:04:35.252Z,99937.08
2022-11-24T14:09:45.655Z,99940.88
2022-11-24T14:14:50.477Z,99945.11
2022-11-24T14:19:58.472Z,99958.73
2022-11-24T14:25:02.799Z,99969.05
2022-11-24T14:30:13.485Z,99976.83
2022-11-24T14:35:34.129Z,99983.84
2022-11-24T14:40:43.285Z,99986.79
2022-11-24T14:46:01.021Z,99988.98
2022-11-24T14:51:25.129Z,99982.48
2022-11-24T14:56:39.303Z,99985.52
2022-11-24T15:01:42.137Z,99992.67
2022-11-24T15:06:48.648Z,99994.65
2022-11-24T15:11:51.591Z,99996.95
2022-11-24T15:16:54.404Z,100001.77
2022-11-24T15:21:57.289Z,100003.69
2022-11-24T15:27:01.191Z,100001.77
2022-11-24T15:32:15.560Z,100006.98
2022-11-24T15:37:18.615Z,100010.73
2022-11-24T15:42:21.384Z,100009.66
2022-11-24T15:47:24.148Z,100008.08
2022-11-24T15:52:26.901Z,100004.92
2022-11-24T15:57:30.083Z,100007.86
2022-11-24T16:02:33.047Z,100005.83
2022-11-24T16:07:36.023Z,100002.88
2022-11-24T16:12:38.857Z,100006.12
2022-11-24T16:17:41.647Z,100010.98
2022-11-24T16:22:44.699Z,100011.99
2022-11-24T16:27:48.556Z,100015.77
2022-11-24T16:32:51.460Z,100017.48
2022-11-24T16:37:54.339Z,100019.11
2022-11-24T16:42:58.506Z,100029.63
2022-11-24T16:48:01.363Z,100027.23
2022-11-24T16:53:04.204Z,100027.23
2022-11-24T16:58:06.996Z,100030.70
2022-11-24T17:03:09.865Z,100030.00
2022-11-24T17:08:12.802Z,100032.58
2022-11-24T17:13:15.971Z,100037.96
2022-11-24T17:18:25.885Z,100044.77
2022-11-24T17:23:29.634Z,100052.23
2022-11-24T17:28:34.611Z,100059.11
2022-11-24T17:33:37.474Z,100064.13
2022-11-24T17:38:40.322Z,100067.22
2022-11-24T17:43:43.749Z,100064.64
2022-11-24T17:48:47.203Z,100073.23
2022-11-24T17:53:52.136Z,100081.92
2022-11-24T17:58:59.499Z,100093.39
2022-11-24T18:04:02.813Z,100093.97
2022-11-24T18:09:06.284Z,100090.64
2022-11-24T18:14:10.020Z,100086.70
2022-11-24T18:19:13.001Z,100089.48
2022-11-24T18:24:22.557Z,100091.61
2022-11-24T18:29:26.937Z,100101.30
2022-11-24T18:34:29.862Z,100101.59
2022-11-24T18:39:32.692Z,100105.77
2022-11-24T18:44:38.045Z,100104.28
2022-11-24T18:49:40.828Z,100113.17
2022-11-24T18:54:45.428Z,100120.39
2022-11-24T18:59:48.326Z,100115.17
2022-11-24T19:04:51.400Z,100122.55
2022-11-24T19:09:54.190Z,100118.82
2022-11-24T19:14:56.927Z,100113.44
2022-11-24T19:19:59.691Z,100108.55
2022-11-24T19:25:02.477Z,100102.81
2022-11-24T19:30:06.378Z,100112.29
2022-11-24T19:35:09.713Z,100113.12
2022-11-24T19:40:13.547Z,100119.73
2022-11-24T19:45:16.351Z,100124.46
2022-11-24T19:50:19.251Z,100133.49
2022-11-24T19:55:23.020Z,100140.07
2022-11-24T20:00:30.608Z,100140.97
2022-11-24T20:05:34.921Z,100141.73
2022-11-24T20:10:40.001Z,100142.61
2022-11-24T20:15:42.774Z,100141.91
2022-11-24T20:20:45.760Z,100140.18
2022-11-24T20:25:48.581Z,100152.45
2022-11-24T20:30:51.483Z,100151.29
2022-11-24T20:35:54.600Z,100157.75
2022-11-24T20:41:11.253Z,100164.11
2022-11-24T20:46:20.509Z,100171.77
2022-11-24T20:51:26.491Z,100171.21
2022-11-24T20:56:35.310Z,100166.44
2022-11-24T21:01:42.540Z,100170.29
2022-11-24T21:06:46.212Z,100183.59
2022-11-24T21:11:49.182Z,100187.62
2022-11-24T21:16:52.035Z,100191.41
2022-11-24T21:21:54.815Z,100191.95
2022-11-24T21:26:57.940Z,100193.67
2022-11-24T21:32:00.820Z,100197.23
2022-11-24T21:37:05.322Z,100195.20
2022-11-24T21:42:08.210Z,100198.40
2022-11-24T21:47:10.995Z,100193.33
2022-11-24T21:52:13.889Z,100195.90
2022-11-24T21:57:17.489Z,100196.84
2022-11-24T22:02:20.349Z,100186.81
2022-11-24T22:07:23.255Z,100185.15
2022-11-24T22:12:26.312Z,100185.21
2022-11-24T22:17:31.052Z,100184.64
2022-11-24T22:22:33.859Z,100190.12
2022-11-24T22:27:36.744Z,100194.86
2022-11-24T22:32:39.514Z,100202.25
2022-11-24T22:37:42.286Z,100213.29
2022-11-24T22:42:45.802Z,100216.73
2022-11-24T22:47:48.555Z,100218.72
2022-11-24T22:52:51.497Z,100225.30
2022-11-24T22:57:56.985Z,100229.43
2022-11-24T23:03:00.227Z,100230.16
2022-11-24T23:08:03.323Z,100229.23
2022-11-24T23:13:06.139Z,100231.13
2022-11-24T23:18:08.933Z,100233.57
2022-11-24T23:23:11.978Z,100227.06
2022-11-24T23:28:14.804Z,100225.41
2022-11-24T23:33:17.676Z,100225.51
2022-11-24T23:38:20.457Z,100220.02
2022-11-24T23:43:23.350Z,100212.66
2022-11-24T23:48:26.455Z,100207.67
2022-11-24T23:53:32.793Z,100210.94
2022-11-24T23:58:35.573Z,100205.38
